Time;durP1;ratioP1;P1;durP2;ratioP2;P2;SDS_P1;SDS_P2;PMS_P1;PMS_P2;Temp;Humidity;BMP_temperature;BMP_pressure;BME280_temperature;BME280_humidity;BME280_pressure;Samples;Min_cycle;Max_cycle;Signal;HPM_P1;HPM_P2
2023/05/07 00:01:53;;;;;;;9.63;7.75;;;13.40;99.90;;;;;;5135852;27;20651;-77
2023/05/07 00:04:20;;;;;;;8.65;7.32;;;13.40;99.90;;;;;;5134663;28;20184;-76
2023/05/07 00:06:46;;;;;;;8.70;7.80;;;13.40;99.90;;;;;;5133596;28;20187;-76
2023/05/07 00:09:12;;;;;;;9.80;8.07;;;13.50;99.90;;;;;;5135112;27;20168;-76
2023/05/07 00:11:38;;;;;;;10.05;8.48;;;13.50;99.90;;;;;;5133252;28;20286;-76
2023/05/07 00:14:03;;;;;;;11.02;8.18;;;13.50;99.90;;;;;;5133160;27;20211;-77
2023/05/07 00:16:29;;;;;;;9.75;7.65;;;13.50;99.90;;;;;;5132880;28;20231;-77
2023/05/07 00:18:55;;;;;;;10.48;8.00;;;13.50;99.90;;;;;;5134372;27;20616;-77
2023/05/07 00:21:21;;;;;;;12.27;8.70;;;13.50;99.90;;;;;;5134479;27;20678;-77
2023/05/07 00:23:47;;;;;;;9.02;8.13;;;13.50;99.90;;;;;;5134312;27;20207;-76
2023/05/07 00:26:13;;;;;;;10.45;9.25;;;13.60;99.90;;;;;;5134297;27;20168;-77
2023/05/07 00:28:39;;;;;;;9.55;8.23;;;13.50;99.90;;;;;;5134292;27;20547;-77
2023/05/07 00:31:05;;;;;;;10.65;8.52;;;13.50;99.90;;;;;;5134340;27;20187;-77
2023/05/07 00:33:30;;;;;;;11.73;8.82;;;13.50;99.90;;;;;;5134186;27;20297;-76
2023/05/07 00:35:56;;;;;;;10.52;8.60;;;13.50;99.90;;;;;;5132598;27;20692;-77
2023/05/07 00:38:22;;;;;;;9.57;8.02;;;13.50;99.90;;;;;;5132848;27;20176;-77
2023/05/07 00:40:47;;;;;;;8.38;7.40;;;13.50;99.90;;;;;;5133869;27;20191;-77
2023/05/07 00:43:13;;;;;;;12.77;8.18;;;13.50;99.90;;;;;;5134170;27;20535;-77
2023/05/07 00:45:39;;;;;;;9.30;8.18;;;13.50;99.90;;;;;;5132599;28;20199;-77
2023/05/07 00:48:05;;;;;;;8.75;7.50;;;13.50;99.90;;;;;;5134367;28;20164;-77
2023/05/07 00:50:32;;;;;;;10.05;7.75;;;13.50;99.90;;;;;;5134037;27;20192;-77
2023/05/07 00:52:59;;;;;;;8.85;7.60;;;13.50;99.90;;;;;;5132775;28;20186;-77
2023/05/07 00:55:25;;;;;;;8.30;7.50;;;13.50;99.90;;;;;;5132615;28;20226;-77
2023/05/07 00:57:51;;;;;;;8.60;7.72;;;13.50;99.90;;;;;;5134154;27;20628;-77
2023/05/07 01:00:17;;;;;;;10.23;7.95;;;13.50;99.90;;;;;;5132418;28;20195;-76
2023/05/07 01:02:43;;;;;;;11.10;8.35;;;13.50;99.90;;;;;;5133825;27;20192;-77
2023/05/07 01:05:12;;;;;;;12.35;8.55;;;13.50;99.90;;;;;;5133965;27;20571;-76
2023/05/07 01:07:40;;;;;;;10.20;8.48;;;13.50;99.90;;;;;;5136324;27;20643;-77
2023/05/07 01:10:08;;;;;;;9.68;8.45;;;13.50;99.90;;;;;;5137616;27;20195;-77
2023/05/07 01:12:36;;;;;;;10.27;8.07;;;13.40;99.90;;;;;;5136581;27;20179;-77
2023/05/07 01:15:04;;;;;;;12.07;9.10;;;13.40;99.90;;;;;;5136524;27;20222;-76
2023/05/07 01:17:36;;;;;;;11.93;8.85;;;13.40;99.90;;;;;;5138483;27;20175;-76
2023/05/07 01:20:04;;;;;;;9.82;8.20;;;13.40;99.90;;;;;;5138872;27;20281;-77
2023/05/07 01:22:36;;;;;;;11.52;9.02;;;13.40;99.90;;;;;;5137556;27;20226;-77
2023/05/07 01:25:07;;;;;;;10.93;9.10;;;13.40;99.90;;;;;;5137921;27;20612;-77
2023/05/07 01:27:36;;;;;;;10.35;9.20;;;13.40;99.90;;;;;;5136363;27;20271;-78
2023/05/07 01:30:04;;;;;;;10.10;9.07;;;13.40;99.90;;;;;;5137876;27;20671;-76
2023/05/07 01:32:37;;;;;;;10.43;8.80;;;13.40;99.90;;;;;;5137658;27;20199;-78
2023/05/07 01:35:05;;;;;;;10.27;9.13;;;13.40;99.90;;;;;;5138362;27;20221;-74
2023/05/07 01:37:31;;;;;;;11.93;9.23;;;13.40;99.90;;;;;;5136832;27;20178;-74
2023/05/07 01:39:57;;;;;;;9.98;8.90;;;13.30;99.90;;;;;;5135496;27;20279;-74
2023/05/07 01:42:23;;;;;;;10.68;9.38;;;13.30;99.90;;;;;;5135571;27;20195;-74
2023/05/07 01:44:49;;;;;;;13.02;9.90;;;13.30;99.90;;;;;;5136875;27;20254;-74
2023/05/07 01:47:16;;;;;;;13.07;9.73;;;13.30;99.90;;;;;;5136755;27;20180;-74
2023/05/07 01:49:42;;;;;;;10.52;9.07;;;13.30;99.90;;;;;;5136626;27;20218;-74
2023/05/07 01:52:11;;;;;;;12.23;9.63;;;13.20;99.90;;;;;;5138145;27;20609;-74
2023/05/07 01:54:36;;;;;;;10.90;8.40;;;13.20;99.90;;;;;;5136598;27;20246;-74
2023/05/07 01:57:02;;;;;;;11.88;9.10;;;13.30;99.90;;;;;;5135313;27;20297;-74
2023/05/07 01:59:28;;;;;;;11.02;8.65;;;13.30;99.90;;;;;;5136467;27;20248;-74
2023/05/07 02:01:53;;;;;;;13.88;9.85;;;13.20;99.90;;;;;;5134908;27;20195;-74
2023/05/07 02:04:19;;;;;;;11.00;9.10;;;13.30;99.90;;;;;;5135152;27;20175;-74
2023/05/07 02:06:45;;;;;;;12.70;8.85;;;13.20;99.90;;;;;;5135133;27;20183;-74
2023/05/07 02:09:11;;;;;;;11.02;9.10;;;13.20;99.90;;;;;;5135121;27;20209;-74
2023/05/07 02:11:37;;;;;;;11.85;8.90;;;13.20;99.90;;;;;;5134891;27;20196;-74
2023/05/07 02:14:02;;;;;;;10.63;9.45;;;13.20;99.90;;;;;;5136228;27;20609;-74
2023/05/07 02:16:28;;;;;;;10.30;8.82;;;13.20;99.90;;;;;;5134573;27;20214;-74
2023/05/07 02:18:54;;;;;;;10.65;8.85;;;13.20;99.90;;;;;;5133737;27;20178;-74
2023/05/07 02:21:20;;;;;;;12.85;9.05;;;13.20;99.90;;;;;;5135893;27;20191;-74
2023/05/07 02:23:46;;;;;;;11.30;9.65;;;13.20;99.90;;;;;;5134942;27;20597;-74
2023/05/07 02:26:11;;;;;;;13.10;8.95;;;13.20;99.90;;;;;;5136368;27;20183;-72
2023/05/07 02:28:37;;;;;;;10.00;8.50;;;13.20;99.90;;;;;;5135854;27;20213;-72
2023/05/07 02:31:04;;;;;;;12.05;9.05;;;13.20;99.90;;;;;;5135569;27;20200;-72
2023/05/07 02:33:30;;;;;;;9.52;7.82;;;13.20;99.90;;;;;;5135956;27;20180;-72
2023/05/07 02:35:56;;;;;;;11.43;8.75;;;13.20;99.90;;;;;;5134334;27;20222;-72
2023/05/07 02:38:22;;;;;;;13.88;9.13;;;13.20;99.90;;;;;;5135693;27;20631;-71
2023/05/07 02:40:48;;;;;;;10.63;8.45;;;13.20;99.90;;;;;;5135554;27;20188;-72
2023/05/07 02:43:14;;;;;;;12.18;8.27;;;13.20;99.90;;;;;;5135591;27;20179;-71
2023/05/07 02:45:40;;;;;;;10.25;8.75;;;13.10;99.90;;;;;;5134149;27;20532;-71
2023/05/07 02:48:06;;;;;;;10.13;7.78;;;13.10;99.90;;;;;;5134141;27;20176;-72
2023/05/07 02:50:32;;;;;;;9.88;8.55;;;13.10;99.90;;;;;;5136313;27;20183;-74
2023/05/07 02:52:58;;;;;;;10.02;8.63;;;13.10;99.90;;;;;;5135443;27;20164;-74
2023/05/07 02:55:24;;;;;;;11.00;8.82;;;13.10;99.90;;;;;;5135210;27;20199;-74
2023/05/07 02:57:50;;;;;;;10.00;7.97;;;13.10;99.90;;;;;;5135372;27;20168;-74
2023/05/07 03:00:18;;;;;;;13.90;8.90;;;13.10;99.90;;;;;;5135303;27;20223;-74
2023/05/07 03:02:47;;;;;;;10.70;9.43;;;13.10;99.90;;;;;;5133677;27;20215;-74
2023/05/07 03:05:14;;;;;;;9.57;8.48;;;13.00;99.90;;;;;;5135082;27;20579;-74
2023/05/07 03:07:40;;;;;;;7.93;7.13;;;13.00;99.90;;;;;;5133989;27;20179;-74
2023/05/07 03:10:07;;;;;;;9.80;8.70;;;13.00;99.90;;;;;;5135536;27;20187;-74
2023/05/07 03:12:33;;;;;;;10.55;8.48;;;13.00;99.90;;;;;;5133707;27;20293;-74
2023/05/07 03:14:58;;;;;;;10.50;8.68;;;13.00;99.90;;;;;;5134972;27;20191;-74
2023/05/07 03:17:24;;;;;;;10.68;8.32;;;13.00;99.90;;;;;;5134829;27;20168;-74
2023/05/07 03:19:50;;;;;;;10.10;8.30;;;12.90;99.90;;;;;;5133454;27;20206;-74
2023/05/07 03:22:16;;;;;;;9.93;8.48;;;12.90;99.90;;;;;;5134871;27;20580;-74
2023/05/07 03:24:42;;;;;;;10.18;8.48;;;12.90;99.90;;;;;;5135348;27;20281;-74
2023/05/07 03:27:07;;;;;;;9.43;8.25;;;12.90;99.90;;;;;;5135313;27;20251;-74
2023/05/07 03:29:33;;;;;;;11.57;8.15;;;12.90;99.90;;;;;;5134675;27;20184;-74
2023/05/07 03:31:59;;;;;;;10.70;8.15;;;12.90;99.90;;;;;;5134815;27;20239;-74
2023/05/07 03:34:25;;;;;;;8.60;7.78;;;12.80;99.90;;;;;;5134601;27;20678;-74
2023/05/07 03:36:51;;;;;;;9.30;7.88;;;12.80;99.90;;;;;;5133183;27;20196;-74
2023/05/07 03:39:17;;;;;;;9.23;8.23;;;12.80;99.90;;;;;;5134574;27;20569;-74
2023/05/07 03:41:42;;;;;;;10.27;7.90;;;12.80;99.90;;;;;;5135574;27;20195;-74
2023/05/07 03:44:08;;;;;;;9.77;7.80;;;12.80;99.90;;;;;;5134677;27;20160;-74
2023/05/07 03:46:34;;;;;;;10.48;7.95;;;12.80;99.90;;;;;;5134703;27;20175;-74
2023/05/07 03:49:00;;;;;;;10.40;8.20;;;12.80;99.90;;;;;;5133314;27;20174;-74
2023/05/07 03:51:26;;;;;;;8.68;7.78;;;12.80;99.90;;;;;;5133421;27;20202;-74
2023/05/07 03:53:57;;;;;;;9.00;8.10;;;12.70;99.90;;;;;;5133481;27;20182;-74
2023/05/07 03:56:26;;;;;;;12.07;8.30;;;12.70;99.90;;;;;;5135101;27;20179;-75
2023/05/07 03:58:52;;;;;;;8.63;7.55;;;12.70;99.90;;;;;;5133273;28;20175;-74
2023/05/07 04:01:18;;;;;;;9.85;8.20;;;12.60;99.90;;;;;;5132878;28;20217;-74
2023/05/07 04:03:43;;;;;;;8.90;7.60;;;12.70;99.90;;;;;;5134770;27;20172;-74
2023/05/07 04:06:09;;;;;;;10.15;7.97;;;12.70;99.90;;;;;;5133264;28;20252;-74
2023/05/07 04:08:35;;;;;;;8.00;7.15;;;12.70;99.90;;;;;;5135039;27;20201;-74
2023/05/07 04:11:01;;;;;;;8.80;7.90;;;12.70;99.90;;;;;;5134649;27;20279;-74
2023/05/07 04:13:26;;;;;;;9.65;7.30;;;12.70;99.90;;;;;;5134491;27;20259;-74
2023/05/07 04:15:53;;;;;;;9.63;8.20;;;12.70;99.90;;;;;;5133051;28;20203;-74
2023/05/07 04:18:19;;;;;;;10.35;7.72;;;12.70;99.90;;;;;;5133039;28;20172;-74
2023/05/07 04:20:45;;;;;;;8.90;7.60;;;12.70;99.90;;;;;;5134255;27;20229;-74
2023/05/07 04:23:12;;;;;;;8.73;7.65;;;12.70;99.90;;;;;;5134558;27;20192;-74
2023/05/07 04:25:38;;;;;;;8.45;7.45;;;12.70;99.90;;;;;;5135107;27;20159;-74
2023/05/07 04:28:04;;;;;;;9.40;7.85;;;12.80;99.90;;;;;;5134493;27;20172;-74
2023/05/07 04:30:30;;;;;;;9.48;7.30;;;12.80;99.90;;;;;;5133070;28;20223;-74
2023/05/07 04:32:56;;;;;;;8.13;7.13;;;12.70;99.90;;;;;;5133025;28;20184;-74
2023/05/07 04:35:22;;;;;;;8.27;7.45;;;12.70;99.90;;;;;;5134336;27;20664;-74
2023/05/07 04:37:48;;;;;;;8.80;7.60;;;12.70;99.90;;;;;;5134315;27;20217;-74
2023/05/07 04:40:14;;;;;;;8.30;7.50;;;12.70;99.90;;;;;;5134155;27;20556;-74
2023/05/07 04:42:40;;;;;;;9.18;7.40;;;12.70;99.90;;;;;;5136862;27;20551;-74
2023/05/07 04:45:06;;;;;;;10.20;7.28;;;12.70;99.90;;;;;;5139186;27;20221;-74
2023/05/07 04:47:32;;;;;;;8.90;7.80;;;12.70;99.90;;;;;;5139214;27;20255;-74
2023/05/07 04:49:58;;;;;;;8.93;7.55;;;12.70;99.90;;;;;;5139409;27;20207;-74
2023/05/07 04:52:24;;;;;;;8.90;7.38;;;12.70;99.90;;;;;;5142756;27;20175;-74
2023/05/07 04:54:49;;;;;;;8.10;7.30;;;12.80;99.90;;;;;;5138256;27;20507;-74
2023/05/07 04:57:17;;;;;;;11.05;7.78;;;12.80;99.90;;;;;;5137268;27;20168;-74
2023/05/07 04:59:43;;;;;;;7.60;6.85;;;12.80;99.90;;;;;;5138935;27;20516;-74
2023/05/07 05:02:10;;;;;;;8.57;7.22;;;12.80;99.90;;;;;;5138458;27;20612;-74
2023/05/07 05:04:36;;;;;;;11.45;7.78;;;12.90;99.90;;;;;;5137006;27;20178;-74
2023/05/07 05:07:05;;;;;;;9.75;7.13;;;12.90;99.90;;;;;;5138565;27;20163;-74
2023/05/07 05:09:33;;;;;;;8.07;7.28;;;13.10;99.90;;;;;;5137917;27;20192;-74
2023/05/07 05:11:59;;;;;;;8.70;7.10;;;13.10;99.90;;;;;;5138758;27;20183;-77
2023/05/07 05:14:25;;;;;;;7.80;6.78;;;13.30;99.90;;;;;;5136885;27;20183;-74
2023/05/07 05:16:51;;;;;;;6.97;6.25;;;13.30;99.90;;;;;;5137671;27;20547;-74
2023/05/07 05:19:16;;;;;;;8.18;7.35;;;13.40;99.90;;;;;;5138110;27;20207;-74
2023/05/07 05:21:42;;;;;;;7.38;6.63;;;13.50;99.90;;;;;;5137543;27;20299;-74
2023/05/07 05:24:08;;;;;;;6.90;6.20;;;13.50;99.90;;;;;;5137485;27;20651;-74
2023/05/07 05:26:34;;;;;;;6.93;5.82;;;13.50;99.90;;;;;;5135937;27;20640;-74
2023/05/07 05:29:00;;;;;;;8.38;6.50;;;13.60;99.90;;;;;;5137270;27;20186;-74
2023/05/07 05:31:26;;;;;;;7.97;6.20;;;13.50;99.90;;;;;;5137281;27;20699;-74
2023/05/07 05:33:52;;;;;;;7.10;6.25;;;13.60;99.90;;;;;;5137471;27;20163;-74
2023/05/07 05:36:18;;;;;;;6.35;5.75;;;13.60;99.90;;;;;;5137574;27;20207;-75
2023/05/07 05:38:44;;;;;;;7.30;6.07;;;13.70;99.90;;;;;;5137121;27;20168;-75
2023/05/07 05:41:10;;;;;;;6.97;6.22;;;13.70;99.90;;;;;;5137043;27;20695;-75
2023/05/07 05:43:36;;;;;;;6.03;5.40;;;13.70;99.90;;;;;;5137331;27;20159;-74
2023/05/07 05:46:01;;;;;;;6.50;5.90;;;13.80;99.90;;;;;;5136758;27;20539;-74
2023/05/07 05:48:29;;;;;;;6.53;5.55;;;13.90;99.90;;;;;;5137058;27;20172;-74
2023/05/07 05:50:54;;;;;;;8.52;6.60;;;14.00;99.90;;;;;;5136933;27;20195;-74
2023/05/07 05:53:20;;;;;;;8.15;6.13;;;14.10;99.90;;;;;;5137404;27;20620;-74
2023/05/07 05:55:46;;;;;;;7.30;6.10;;;14.20;99.90;;;;;;5136775;27;20192;-74
2023/05/07 05:58:14;;;;;;;7.50;6.10;;;14.20;99.90;;;;;;5135732;27;20172;-74
2023/05/07 06:00:40;;;;;;;8.77;6.25;;;14.30;99.90;;;;;;5135629;27;20686;-74
2023/05/07 06:03:06;;;;;;;7.28;5.75;;;14.40;99.90;;;;;;5136056;27;20258;-74
2023/05/07 06:05:36;;;;;;;6.80;5.63;;;14.50;99.90;;;;;;5126414;27;20192;-73
2023/05/07 06:08:02;;;;;;;7.18;5.70;;;14.60;99.90;;;;;;5117320;28;20315;-74
2023/05/07 06:10:30;;;;;;;8.68;6.15;;;14.70;99.90;;;;;;5116531;28;20196;-74
2023/05/07 06:12:55;;;;;;;7.78;5.45;;;14.60;99.90;;;;;;5117760;28;20644;-74
2023/05/07 06:15:21;;;;;;;6.50;5.82;;;14.60;99.90;;;;;;5118942;27;20188;-74
2023/05/07 06:17:47;;;;;;;8.30;5.45;;;14.60;99.90;;;;;;5115939;28;20545;-74
2023/05/07 06:20:12;;;;;;;6.18;5.15;;;14.70;99.90;;;;;;5117320;28;20283;-74
2023/05/07 06:22:38;;;;;;;6.32;5.20;;;14.80;99.90;;;;;;5117932;28;20183;-74
2023/05/07 06:25:05;;;;;;;7.70;5.00;;;14.90;99.90;;;;;;5116571;28;20663;-74
2023/05/07 06:27:30;;;;;;;6.53;4.78;;;15.10;99.90;;;;;;5116520;28;20173;-74
2023/05/07 06:29:56;;;;;;;8.93;5.72;;;15.30;99.90;;;;;;5115628;28;20225;-73
2023/05/07 06:32:22;;;;;;;8.40;5.00;;;15.50;99.90;;;;;;5116513;28;20153;-74
2023/05/07 06:34:48;;;;;;;6.47;5.20;;;15.50;99.90;;;;;;5116554;28;20582;-74
2023/05/07 06:37:15;;;;;;;6.22;5.07;;;15.60;99.90;;;;;;5114896;28;20203;-74
2023/05/07 06:39:42;;;;;;;4.90;4.35;;;15.60;99.90;;;;;;5114575;28;20196;-74
2023/05/07 06:42:11;;;;;;;5.53;4.90;;;15.80;99.90;;;;;;5115925;28;20164;-73
2023/05/07 06:44:39;;;;;;;4.97;4.30;;;16.00;99.90;;;;;;5112683;28;20180;-74
2023/05/07 06:47:06;;;;;;;6.72;5.10;;;16.20;99.90;;;;;;5115684;28;20160;-74
2023/05/07 06:49:33;;;;;;;7.38;4.82;;;16.30;99.90;;;;;;5097396;28;20263;-74
2023/05/07 06:52:00;;;;;;;5.72;4.82;;;16.30;99.90;;;;;;5114299;27;20180;-74
2023/05/07 06:54:32;;;;;;;5.28;4.30;;;16.40;99.90;;;;;;5117038;27;20199;-74
2023/05/07 06:56:58;;;;;;;6.03;4.57;;;16.50;99.90;;;;;;5114415;28;20253;-74
2023/05/07 06:59:27;;;;;;;8.38;4.78;;;16.60;99.90;;;;;;5114656;27;20184;-74
2023/05/07 07:01:55;;;;;;;6.22;4.28;;;16.60;99.90;;;;;;5113890;28;20184;-74
2023/05/07 07:04:25;;;;;;;8.65;4.95;;;16.70;99.90;;;;;;5113278;28;20177;-74
2023/05/07 07:06:53;;;;;;;6.13;4.00;;;16.70;99.90;;;;;;5135770;27;20668;-74
2023/05/07 07:09:22;;;;;;;5.82;4.28;;;16.70;99.90;;;;;;5135026;27;20179;-79
2023/05/07 07:11:52;;;;;;;6.43;4.38;;;16.70;99.90;;;;;;5135135;27;20718;-73
2023/05/07 07:14:18;;;;;;;5.03;4.07;;;16.70;99.90;;;;;;5136031;27;20228;-73
2023/05/07 07:16:46;;;;;;;5.68;3.83;;;16.80;99.90;;;;;;5133928;27;20255;-73
2023/05/07 07:19:15;;;;;;;5.32;4.00;;;16.90;99.90;;;;;;5135455;27;20176;-73
2023/05/07 07:21:44;;;;;;;5.07;3.63;;;17.00;99.90;;;;;;5133745;27;20195;-73
2023/05/07 07:24:20;;;;;;;4.65;4.22;;;17.00;99.90;;;;;;5133889;27;20172;-73
2023/05/07 07:26:48;;;;;;;4.18;3.78;;;17.10;99.90;;;;;;5134019;27;20199;-77
2023/05/07 07:29:14;;;;;;;4.82;4.30;;;17.20;99.90;;;;;;5135137;27;20194;-76
2023/05/07 07:31:40;;;;;;;4.05;3.60;;;17.20;99.90;;;;;;5135267;27;20203;-74
2023/05/07 07:34:06;;;;;;;5.40;3.60;;;17.20;99.90;;;;;;5135799;27;20164;-77
2023/05/07 07:36:31;;;;;;;5.40;4.05;;;17.30;99.90;;;;;;5115403;27;20253;-77
2023/05/07 07:38:57;;;;;;;4.95;3.40;;;17.40;99.90;;;;;;5114186;28;20217;-78
2023/05/07 07:41:23;;;;;;;7.05;4.30;;;17.40;99.90;;;;;;5115503;28;20234;-74
2023/05/07 07:43:49;;;;;;;4.32;3.90;;;17.40;99.90;;;;;;5113168;28;20164;-74
2023/05/07 07:46:14;;;;;;;4.70;3.50;;;17.30;99.90;;;;;;5114796;28;20521;-74
2023/05/07 07:48:40;;;;;;;4.40;3.80;;;17.30;99.90;;;;;;5114631;28;20187;-74
2023/05/07 07:51:06;;;;;;;4.40;4.00;;;17.20;99.90;;;;;;5113008;28;20326;-75
2023/05/07 07:53:31;;;;;;;7.57;4.07;;;17.20;99.90;;;;;;5114704;28;20204;-75
2023/05/07 07:55:57;;;;;;;6.32;3.55;;;17.20;99.90;;;;;;5112990;28;20204;-75
2023/05/07 07:58:24;;;;;;;6.70;4.18;;;17.20;99.90;;;;;;5114858;28;20171;-73
2023/05/07 08:00:50;;;;;;;5.00;3.97;;;17.20;99.90;;;;;;5113117;28;20195;-73
2023/05/07 08:03:16;;;;;;;5.07;3.90;;;17.20;99.90;;;;;;5114429;28;20156;-73
2023/05/07 08:05:42;;;;;;;4.38;3.60;;;17.40;99.90;;;;;;5103064;28;20663;-72
2023/05/07 08:08:09;;;;;;;5.28;3.65;;;17.50;99.90;;;;;;5094361;28;20710;-72
2023/05/07 08:10:37;;;;;;;5.40;3.60;;;17.60;99.90;;;;;;5092798;28;20204;-70
2023/05/07 08:13:04;;;;;;;5.28;3.50;;;17.90;99.90;;;;;;5094728;28;20153;-71
2023/05/07 08:15:30;;;;;;;4.72;3.97;;;18.10;99.90;;;;;;5096476;28;20200;-71
2023/05/07 08:17:57;;;;;;;4.65;3.85;;;18.40;99.90;;;;;;5098708;28;20527;-71
2023/05/07 08:20:23;;;;;;;4.22;3.30;;;18.40;99.90;;;;;;5098694;28;20299;-71
2023/05/07 08:22:49;;;;;;;4.45;3.40;;;18.60;99.90;;;;;;5097243;28;20184;-71
2023/05/07 08:25:16;;;;;;;3.92;3.42;;;18.70;99.90;;;;;;5098659;28;20169;-71
2023/05/07 08:27:42;;;;;;;5.30;3.35;;;18.90;99.90;;;;;;5098816;28;20158;-71
2023/05/07 08:30:08;;;;;;;4.97;3.42;;;19.00;99.90;;;;;;5098059;28;20683;-71
2023/05/07 08:32:34;;;;;;;3.78;2.78;;;19.10;99.90;;;;;;5098056;28;20168;-70
2023/05/07 08:35:00;;;;;;;5.93;3.45;;;19.20;99.90;;;;;;5107763;27;20184;-71
2023/05/07 08:37:26;;;;;;;4.63;3.85;;;19.20;99.90;;;;;;5137446;27;20179;-71
2023/05/07 08:39:51;;;;;;;4.38;3.30;;;19.20;99.90;;;;;;5138783;27;20188;-71
2023/05/07 08:42:18;;;;;;;5.40;3.47;;;19.20;99.90;;;;;;5138884;27;20558;-71
2023/05/07 08:44:48;;;;;;;5.30;3.40;;;19.10;99.90;;;;;;5139038;27;20506;-71
2023/05/07 08:47:14;;;;;;;3.40;3.10;;;19.10;99.90;;;;;;5139178;27;20211;-71
2023/05/07 08:49:40;;;;;;;8.23;3.85;;;19.10;99.90;;;;;;5139404;27;20229;-71
2023/05/07 08:52:06;;;;;;;3.75;3.05;;;19.10;99.90;;;;;;5138349;27;20160;-71
2023/05/07 08:54:32;;;;;;;5.32;3.15;;;19.20;99.90;;;;;;5139052;27;20164;-71
2023/05/07 08:56:58;;;;;;;4.30;3.15;;;19.50;99.90;;;;;;5138822;27;20196;-71
2023/05/07 08:59:23;;;;;;;4.22;3.40;;;20.00;99.90;;;;;;5139537;27;20237;-71
2023/05/07 09:01:49;;;;;;;4.70;2.83;;;20.70;99.90;;;;;;5139647;27;20207;-72
2023/05/07 09:04:15;;;;;;;4.10;2.70;;;21.10;99.90;;;;;;5137875;27;20171;-71
2023/05/07 09:06:41;;;;;;;4.97;2.97;;;21.70;99.90;;;;;;5117810;27;20187;-71
2023/05/07 09:09:08;;;;;;;4.80;2.83;;;22.20;92.70;;;;;;5118616;28;20180;-71
2023/05/07 09:11:33;;;;;;;3.97;2.88;;;23.30;68.50;;;;;;5118285;28;20203;-71
2023/05/07 09:14:01;;;;;;;3.53;2.60;;;23.50;1.00;;;;;;5118520;28;20239;-71
2023/05/07 09:16:28;;;;;;;3.42;2.55;;;23.70;1.00;;;;;;5118813;28;20203;-71
2023/05/07 09:18:55;;;;;;;3.08;2.42;;;23.70;1.00;;;;;;5116798;28;20165;-71
2023/05/07 09:21:22;;;;;;;3.90;2.72;;;24.00;1.00;;;;;;5117849;28;20224;-71
2023/05/07 09:23:53;;;;;;;3.00;2.70;;;23.50;1.00;;;;;;5116864;28;20161;-71
2023/05/07 09:26:27;;;;;;;7.18;3.20;;;23.40;1.00;;;;;;5116484;28;20217;-71
2023/05/07 09:28:54;;;;;;;4.80;2.83;;;22.90;1.00;;;;;;5116574;28;20176;-71
2023/05/07 09:31:23;;;;;;;4.20;3.33;;;22.60;1.00;;;;;;5116259;28;20200;-71
2023/05/07 09:33:49;;;;;;;4.95;3.05;;;22.60;1.00;;;;;;5118711;27;20179;-71
2023/05/07 09:36:17;;;;;;;9.00;4.57;;;22.80;1.00;;;;;;5117757;28;20200;-71
2023/05/07 09:38:45;;;;;;;8.00;4.25;;;23.50;1.00;;;;;;5117796;28;20172;-82
2023/05/07 09:41:12;;;;;;;5.55;4.32;;;23.70;1.00;;;;;;5119036;28;20204;-80
2023/05/07 09:43:40;;;;;;;9.80;6.20;;;24.00;1.00;;;;;;5120027;28;20175;-83
2023/05/07 09:46:13;;;;;;;7.63;5.70;;;23.70;1.00;;;;;;5117800;28;20165;-78
2023/05/07 09:48:40;;;;;;;6.50;5.05;;;23.70;1.00;;;;;;5117557;28;20178;-72
2023/05/07 09:51:31;;;;;;;6.80;5.57;;;23.60;1.00;;;;;;5118632;27;20215;-82
2023/05/07 09:54:00;;;;;;;9.75;6.30;;;23.60;1.00;;;;;;5109538;28;20188;-75
2023/05/07 09:56:29;;;;;;;11.40;7.97;;;23.50;1.00;;;;;;5117156;28;20598;-76
2023/05/07 09:58:59;;;;;;;10.93;8.27;;;23.40;1.00;;;;;;5118863;28;20606;-78
2023/05/07 10:01:26;;;;;;;10.65;8.55;;;23.60;1.00;;;;;;5115507;28;20269;-74
2023/05/07 10:03:53;;;;;;;10.98;8.38;;;23.90;1.00;;;;;;5117009;28;20160;-75
2023/05/07 10:06:20;;;;;;;9.35;7.47;;;24.20;1.00;;;;;;5118139;28;20191;-79
2023/05/07 10:08:49;;;;;;;9.23;7.32;;;23.70;1.00;;;;;;5122447;28;20531;-80
2023/05/07 10:11:15;;;;;;;8.30;6.57;;;23.30;1.00;;;;;;5121057;28;20683;-78
2023/05/07 10:13:42;;;;;;;8.07;6.75;;;22.90;1.00;;;;;;5119106;28;20172;-77
2023/05/07 10:16:09;;;;;;;5.70;4.25;;;22.60;1.00;;;;;;5118287;28;20203;-77
2023/05/07 10:18:35;;;;;;;10.52;6.85;;;22.50;1.00;;;;;;5118535;28;20644;-77
2023/05/07 10:21:11;;;;;;;8.27;5.97;;;22.50;1.00;;;;;;5117897;28;20203;-76
2023/05/07 10:23:38;;;;;;;8.15;6.35;;;22.50;1.00;;;;;;5115294;28;20163;-73
2023/05/07 10:26:07;;;;;;;10.02;8.05;;;22.60;1.00;;;;;;5116522;28;20230;-74
2023/05/07 10:28:40;;;;;;;17.50;13.70;;;22.80;1.00;;;;;;5115141;28;20203;-73
2023/05/07 10:31:29;;;;;;;13.45;8.68;;;22.80;1.00;;;;;;5116257;28;20188;-73
2023/05/07 10:33:56;;;;;;;12.93;10.18;;;22.80;1.00;;;;;;5116202;28;20176;-73
2023/05/07 10:36:23;;;;;;;11.35;9.40;;;23.00;1.00;;;;;;5132935;27;20203;-73
2023/05/07 10:38:49;;;;;;;13.70;10.35;;;23.10;1.00;;;;;;5135389;27;20160;-73
2023/05/07 10:41:16;;;;;;;14.30;10.75;;;22.90;1.00;;;;;;5136155;27;20184;-73
2023/05/07 10:43:44;;;;;;;12.05;10.40;;;22.40;1.00;;;;;;5137191;27;20153;-79
2023/05/07 10:46:11;;;;;;;11.60;8.98;;;22.10;1.00;;;;;;5138733;27;20170;-79
2023/05/07 10:49:06;;;;;;;12.15;9.15;;;21.90;1.00;;;;;;5136125;27;20183;-76
2023/05/07 10:51:33;;;;;;;11.32;8.13;;;21.80;1.00;;;;;;5134722;27;20671;-76
2023/05/07 10:54:08;;;;;;;7.90;6.72;;;21.80;1.00;;;;;;5137260;27;20167;-73
2023/05/07 10:56:34;;;;;;;10.25;7.97;;;21.90;1.00;;;;;;5134579;27;20199;-73
2023/05/07 10:59:30;;;;;;;11.77;9.13;;;21.90;1.00;;;;;;5134509;27;20172;-73
2023/05/07 11:02:02;;;;;;;11.07;8.00;;;21.80;1.00;;;;;;5134237;27;20192;-73
2023/05/07 11:04:29;;;;;;;15.05;10.13;;;22.00;1.00;;;;;;5135532;27;20609;-73
2023/05/07 11:07:10;;;;;;;12.73;9.40;;;21.90;1.00;;;;;;5134138;27;20263;-73
2023/05/07 11:09:55;;;;;;;10.90;8.32;;;22.00;1.00;;;;;;5135941;27;20179;-73
2023/05/07 11:12:36;;;;;;;12.43;9.38;;;22.20;1.00;;;;;;5134482;27;20224;-73
2023/05/07 11:15:05;;;;;;;13.25;10.82;;;22.10;1.00;;;;;;5135322;27;20172;-73
2023/05/07 11:17:34;;;;;;;12.48;9.45;;;22.00;1.00;;;;;;5133772;27;20191;-73
2023/05/07 11:20:01;;;;;;;12.30;10.00;;;22.00;1.00;;;;;;5135253;27;20190;-73
2023/05/07 11:22:32;;;;;;;12.68;10.27;;;21.90;1.00;;;;;;5135483;27;20267;-73
2023/05/07 11:25:03;;;;;;;13.23;10.43;;;21.90;1.00;;;;;;5134207;27;20201;-73
2023/05/07 11:27:29;;;;;;;17.27;9.75;;;21.80;1.00;;;;;;5135765;27;20224;-73
2023/05/07 11:29:56;;;;;;;12.57;8.82;;;21.50;1.00;;;;;;5134746;27;20289;-73
2023/05/07 11:32:29;;;;;;;14.13;9.88;;;21.50;1.00;;;;;;5135362;27;20250;-73
2023/05/07 11:34:57;;;;;;;10.57;8.77;;;21.40;1.00;;;;;;5136558;27;20180;-73
2023/05/07 11:37:25;;;;;;;12.57;9.75;;;21.50;1.00;;;;;;5135753;27;20195;-73
2023/05/07 11:39:58;;;;;;;16.27;11.18;;;21.40;1.00;;;;;;5135314;27;20562;-73
2023/05/07 11:42:29;;;;;;;13.15;10.63;;;21.30;1.00;;;;;;5135202;27;20235;-73
2023/05/07 11:44:55;;;;;;;12.90;9.20;;;21.30;1.00;;;;;;5133723;27;20545;-73
2023/05/07 11:47:21;;;;;;;10.60;8.10;;;21.40;1.00;;;;;;5134858;27;20180;-73
2023/05/07 11:49:52;;;;;;;13.38;9.98;;;21.40;1.00;;;;;;5134860;27;20199;-73
2023/05/07 11:52:19;;;;;;;14.02;9.98;;;21.60;1.00;;;;;;5133550;27;20171;-73
2023/05/07 11:54:55;;;;;;;13.05;9.23;;;21.60;1.00;;;;;;5135591;27;20174;-73
2023/05/07 11:57:21;;;;;;;12.43;10.88;;;21.60;1.00;;;;;;5135733;27;20236;-73
2023/05/07 11:59:48;;;;;;;14.95;11.80;;;21.50;1.00;;;;;;5135627;27;20605;-77
2023/05/07 12:02:15;;;;;;;13.98;11.18;;;21.50;1.00;;;;;;5135509;27;20197;-73
2023/05/07 12:04:41;;;;;;;15.32;11.40;;;21.60;1.00;;;;;;5134452;27;20172;-73
2023/05/07 12:07:13;;;;;;;13.05;11.00;;;21.60;1.00;;;;;;5136390;27;20596;-73
2023/05/07 12:09:39;;;;;;;16.30;11.57;;;21.70;1.00;;;;;;5135638;27;20148;-73
2023/05/07 12:12:05;;;;;;;13.52;11.60;;;21.90;1.00;;;;;;5134398;28;20194;-73
2023/05/07 12:14:32;;;;;;;14.27;10.82;;;21.90;1.00;;;;;;5135538;28;20174;-73
2023/05/07 12:17:04;;;;;;;16.02;11.15;;;22.10;1.00;;;;;;5136023;27;20192;-73
2023/05/07 12:19:30;;;;;;;11.00;9.82;;;22.30;1.00;;;;;;5137266;27;20600;-73
2023/05/07 12:21:57;;;;;;;12.50;10.25;;;22.50;1.00;;;;;;5137443;27;20156;-73
2023/05/07 12:24:22;;;;;;;11.98;9.10;;;22.50;1.00;;;;;;5138867;27;20249;-73
2023/05/07 12:26:49;;;;;;;13.52;9.82;;;22.50;1.00;;;;;;5139111;27;20180;-71
2023/05/07 12:29:15;;;;;;;10.02;8.75;;;22.60;1.00;;;;;;5136984;27;20175;-71
2023/05/07 12:31:41;;;;;;;11.00;9.23;;;22.90;1.00;;;;;;5135432;28;20662;-72
2023/05/07 12:34:07;;;;;;;11.32;9.32;;;23.40;1.00;;;;;;5137469;27;20220;-72
2023/05/07 12:36:40;;;;;;;10.13;8.18;;;23.50;1.00;;;;;;5119505;27;20208;-75
2023/05/07 12:39:08;;;;;;;13.05;9.25;;;23.50;1.00;;;;;;5115609;28;20676;-71
2023/05/07 12:41:53;;;;;;;13.73;9.63;;;23.40;99.90;;;;;;5116037;28;20196;-71
2023/05/07 12:44:19;;;;;;;10.70;8.63;;;23.00;99.90;;;;;;5116162;28;20624;-73
2023/05/07 12:46:47;;;;;;;9.38;7.05;;;22.90;99.90;;;;;;5116792;28;20210;-75